Time;durP1;ratioP1;P1;durP2;ratioP2;P2;SDS_P1;SDS_P2;PMS_P1;PMS_P2;Temp;Humidity;BMP_temperature;BMP_pressure;BME280_temperature;BME280_humidity;BME280_pressure;Samples;Min_cycle;Max_cycle;Signal;HPM_P1;HPM_P2
2022/04/20 00:02:21;;;;;;;0.40;0.30;;;;;;;5.85;81.96;101198.47;5034731;28;21025;-73
2022/04/20 00:04:48;;;;;;;0.40;0.30;;;;;;;5.96;82.18;101202.91;5034559;28;20463;-72
2022/04/20 00:07:14;;;;;;;0.40;0.30;;;;;;;6.07;81.84;101210.81;5033572;28;20499;-73
2022/04/20 00:09:40;;;;;;;0.40;0.30;;;;;;;6.19;81.27;101204.44;5033928;28;20466;-72
2022/04/20 00:12:08;;;;;;;0.50;0.50;;;;;;;6.20;81.28;101208.78;5035726;28;20502;-72
2022/04/20 00:14:35;;;;;;;0.40;0.30;;;;;;;6.11;81.37;101213.81;5034631;28;20470;-67
2022/04/20 00:17:03;;;;;;;0.40;0.30;;;;;;;6.16;81.48;101221.09;5033482;28;20856;-71
2022/04/20 00:19:29;;;;;;;6.37;6.03;;;;;;;6.38;81.05;101215.66;5034597;28;20455;-71
2022/04/20 00:21:56;;;;;;;0.40;0.30;;;;;;;6.53;80.80;101215.75;5035351;28;20447;-71
2022/04/20 00:24:22;;;;;;;0.40;0.30;;;;;;;6.50;81.51;101206.28;5035427;28;20470;-73
2022/04/20 00:26:49;;;;;;;0.40;0.30;;;;;;;6.43;80.87;101211.09;5034942;28;21046;-73
2022/04/20 00:29:15;;;;;;;0.40;0.30;;;;;;;6.50;79.50;101211.69;5033258;28;20458;-72
2022/04/20 00:31:42;;;;;;;0.40;0.30;;;;;;;6.55;79.06;101208.22;5034430;28;20540;-73
2022/04/20 00:34:09;;;;;;;0.40;0.30;;;;;;;6.71;79.32;101199.19;5034291;28;20475;-73
2022/04/20 00:36:36;;;;;;;0.40;0.30;;;;;;;6.72;79.09;101211.56;5035260;28;20445;-73
2022/04/20 00:39:02;;;;;;;0.40;0.30;;;;;;;6.70;78.99;101210.22;5032562;28;20466;-73
2022/04/20 00:41:29;;;;;;;0.40;0.30;;;;;;;6.72;79.76;101197.28;5035221;28;20450;-72
2022/04/20 00:43:55;;;;;;;0.40;0.30;;;;;;;6.72;80.44;101194.59;5032767;28;20515;-73
2022/04/20 00:46:24;;;;;;;0.40;0.30;;;;;;;6.83;78.86;101199.00;5033553;28;20463;-71
2022/04/20 00:48:51;;;;;;;0.40;0.40;;;;;;;6.79;78.51;101206.78;5033786;28;20483;-72
2022/04/20 00:51:19;;;;;;;0.40;0.30;;;;;;;6.83;78.01;101210.56;5035005;28;20808;-72
2022/04/20 00:53:46;;;;;;;0.87;0.87;;;;;;;6.81;78.88;101207.31;5033511;28;20482;-72
2022/04/20 00:56:12;;;;;;;0.40;0.30;;;;;;;6.92;79.22;101207.38;5033667;28;20971;-72
2022/04/20 00:58:41;;;;;;;0.40;0.30;;;;;;;6.92;80.12;101212.78;5032897;28;20850;-72
2022/04/20 01:01:08;;;;;;;0.40;0.30;;;;;;;7.05;79.51;101209.59;5033614;28;20516;-72
2022/04/20 01:03:35;;;;;;;0.40;0.30;;;;;;;7.10;79.01;101206.13;5031950;28;20481;-72
2022/04/20 01:06:01;;;;;;;0.40;0.30;;;;;;;7.02;80.21;101207.44;5034342;28;20936;-72
2022/04/20 01:08:30;;;;;;;0.40;0.30;;;;;;;7.04;80.01;101205.31;5033172;28;20487;-72
2022/04/20 01:10:56;;;;;;;0.40;0.30;;;;;;;7.03;80.42;101203.66;5033652;28;20513;-73
2022/04/20 01:13:23;;;;;;;0.40;0.30;;;;;;;7.14;79.87;101208.03;5032798;28;20483;-73
2022/04/20 01:15:49;;;;;;;0.40;0.30;;;;;;;7.14;79.95;101205.34;5032570;28;20463;-72
2022/04/20 01:18:17;;;;;;;0.40;0.30;;;;;;;7.17;79.95;101206.69;5034517;28;20463;-73
2022/04/20 01:20:45;;;;;;;0.40;0.30;;;;;;;7.21;80.03;101205.88;5032667;28;20455;-72
2022/04/20 01:23:11;;;;;;;0.40;0.30;;;;;;;7.21;80.24;101202.38;5034420;28;20435;-73
2022/04/20 01:25:38;;;;;;;0.40;0.30;;;;;;;7.24;80.50;101197.28;5032190;28;20983;-71
2022/04/20 01:28:06;;;;;;;0.40;0.30;;;;;;;7.33;80.35;101205.69;5030326;28;20498;-73
2022/04/20 01:30:33;;;;;;;0.50;0.40;;;;;;;7.36;79.44;101209.75;5032326;28;21008;-72
2022/04/20 01:33:00;;;;;;;0.50;0.50;;;;;;;7.36;79.20;101212.44;5033531;28;20560;-71
2022/04/20 01:35:26;;;;;;;0.40;0.30;;;;;;;7.32;79.62;101202.19;5034094;28;20447;-70
2022/04/20 01:37:54;;;;;;;0.50;0.30;;;;;;;7.43;79.31;101202.22;5031270;28;20908;-70
2022/04/20 01:40:20;;;;;;;0.40;0.30;;;;;;;7.40;80.25;101206.25;5031248;28;20473;-68
2022/04/20 01:42:47;;;;;;;0.40;0.30;;;;;;;7.39;81.22;101201.13;5033585;28;20929;-71
2022/04/20 01:45:13;;;;;;;0.40;0.30;;;;;;;7.48;80.78;101208.44;5033099;28;20470;-71
2022/04/20 01:47:39;;;;;;;1.50;1.40;;;;;;;7.49;80.99;101199.28;5031954;28;20486;-69
2022/04/20 01:50:07;;;;;;;0.40;0.30;;;;;;;7.57;80.32;101203.34;5032306;28;20847;-71
2022/04/20 01:52:34;;;;;;;0.40;0.30;;;;;;;7.62;80.79;101197.16;5031520;28;20536;-70
2022/04/20 01:55:02;;;;;;;0.40;0.30;;;;;;;7.67;81.14;101203.38;5032683;28;20459;-71
2022/04/20 01:57:28;;;;;;;0.40;0.30;;;;;;;7.73;81.18;101199.59;5032249;28;20522;-70
2022/04/20 01:59:55;;;;;;;0.40;0.30;;;;;;;7.75;80.88;101210.94;5032720;28;20467;-71
2022/04/20 02:02:35;;;;;;;0.40;0.30;;;;;;;7.73;80.96;101207.69;5032057;28;20826;-70
2022/04/20 02:05:03;;;;;;;0.40;0.30;;;;;;;7.69;81.44;101201.19;5031335;28;20460;-70
2022/04/20 02:07:30;;;;;;;0.40;0.30;;;;;;;7.70;81.13;101210.94;5033138;28;20562;-68
2022/04/20 02:09:57;;;;;;;0.40;0.27;;;;;;;7.60;81.83;101202.81;5030826;28;20466;-71
2022/04/20 02:12:25;;;;;;;1.03;1.03;;;;;;;7.55;82.43;101194.69;5032474;28;20483;-71
2022/04/20 02:14:51;;;;;;;0.50;0.47;;;;;;;7.52;82.95;101189.84;5033460;28;20451;-70
2022/04/20 02:17:18;;;;;;;0.40;0.30;;;;;;;7.53;82.63;101181.50;5030119;28;20486;-70
2022/04/20 02:19:44;;;;;;;0.40;0.30;;;;;;;7.45;83.29;101183.91;5032580;28;20832;-70
2022/04/20 02:22:10;;;;;;;0.40;0.30;;;;;;;7.47;82.94;101181.75;5032598;28;20533;-70
2022/04/20 02:24:37;;;;;;;0.40;0.30;;;;;;;7.43;81.97;101196.81;5032383;28;20455;-70
2022/04/20 02:27:04;;;;;;;0.40;0.30;;;;;;;7.31;82.09;101192.47;5030945;28;20487;-71
2022/04/20 02:29:31;;;;;;;0.40;0.30;;;;;;;7.31;81.30;101195.19;5031087;28;20816;-70
2022/04/20 02:31:58;;;;;;;0.40;0.30;;;;;;;7.25;81.11;101193.53;5033007;28;20817;-71
2022/04/20 02:34:25;;;;;;;0.40;0.30;;;;;;;7.17;82.43;101191.34;5030615;28;20495;-70
2022/04/20 02:36:52;;;;;;;0.40;0.30;;;;;;;7.19;83.07;101177.59;5033173;28;20474;-70
2022/04/20 02:39:19;;;;;;;0.40;0.30;;;;;;;7.18;83.29;101184.88;5030473;28;20463;-70
2022/04/20 02:41:46;;;;;;;0.40;0.40;;;;;;;7.23;83.37;101168.75;5032200;28;20992;-69
2022/04/20 02:44:14;;;;;;;0.40;0.30;;;;;;;7.32;83.74;101175.22;5032188;28;20466;-70
2022/04/20 02:46:43;;;;;;;0.40;0.30;;;;;;;7.36;83.50;101180.09;5030687;28;20886;-69
2022/04/20 02:49:10;;;;;;;0.40;0.30;;;;;;;7.40;83.08;101176.63;5022660;28;20459;-71
2022/04/20 02:51:36;;;;;;;2.93;2.83;;;;;;;7.31;84.67;101176.31;5031500;28;20829;-70
2022/04/20 02:54:03;;;;;;;0.40;0.30;;;;;;;7.43;84.31;101186.03;5033121;28;20484;-70
2022/04/20 02:56:29;;;;;;;0.40;0.30;;;;;;;7.37;84.97;101179.03;5032172;28;20475;-69
2022/04/20 02:58:55;;;;;;;0.40;0.30;;;;;;;7.43;85.13;101177.94;5032184;28;20463;-71
2022/04/20 03:01:22;;;;;;;0.40;0.30;;;;;;;7.49;84.67;101174.22;5030392;28;20489;-70
2022/04/20 03:03:50;;;;;;;0.40;0.30;;;;;;;7.52;84.82;101174.47;5030942;28;20848;-74
2022/04/20 03:06:16;;;;;;;0.40;0.30;;;;;;;7.58;84.71;101183.41;5034528;28;20449;-67
2022/04/20 03:08:42;;;;;;;0.40;0.30;;;;;;;7.60;84.33;101192.00;5035507;28;20533;-71
2022/04/20 03:11:09;;;;;;;0.40;0.30;;;;;;;7.64;84.35;101192.31;5034013;28;20462;-72
2022/04/20 03:13:35;;;;;;;0.40;0.30;;;;;;;7.68;84.40;101188.00;5035578;28;20494;-71
2022/04/20 03:16:02;;;;;;;0.40;0.30;;;;;;;7.77;84.06;101181.81;5035517;28;20960;-71
2022/04/20 03:18:32;;;;;;;0.40;0.30;;;;;;;7.75;84.11;101180.47;5036385;28;20462;-73
2022/04/20 03:21:00;;;;;;;0.40;0.30;;;;;;;7.77;83.90;101170.22;5035402;28;21004;-72
2022/04/20 03:23:27;;;;;;;0.40;0.30;;;;;;;7.76;83.86;101172.09;5036356;28;20443;-72
2022/04/20 03:25:53;;;;;;;0.40;0.30;;;;;;;7.76;83.23;101174.81;5035562;28;20491;-73
2022/04/20 03:28:20;;;;;;;0.40;0.30;;;;;;;7.66;84.12;101173.97;5032835;28;20486;-73
2022/04/20 03:30:47;;;;;;;0.40;0.30;;;;;;;7.58;84.46;101168.03;5036507;28;20841;-73
2022/04/20 03:33:14;;;;;;;0.40;0.30;;;;;;;7.64;84.31;101168.84;5035503;28;20541;-71
2022/04/20 03:35:41;;;;;;;0.40;0.30;;;;;;;7.76;84.14;101174.00;5033908;28;20467;-72
2022/04/20 03:38:09;;;;;;;0.40;0.30;;;;;;;7.84;82.84;101187.75;5035018;28;20482;-72
2022/04/20 03:40:36;;;;;;;0.40;0.30;;;;;;;7.79;83.90;101195.00;5034922;28;20427;-70
2022/04/20 03:43:03;;;;;;;0.40;0.30;;;;;;;7.82;84.23;101189.91;5033677;28;20466;-73
2022/04/20 03:45:30;;;;;;;0.40;0.40;;;;;;;7.83;85.04;101199.63;5036372;28;20442;-72
2022/04/20 03:47:56;;;;;;;0.40;0.30;;;;;;;7.84;85.38;101190.47;5035230;28;20528;-72
2022/04/20 03:50:23;;;;;;;0.40;0.30;;;;;;;7.90;85.30;101193.16;5034377;28;20455;-72
2022/04/20 03:52:49;;;;;;;0.40;0.30;;;;;;;7.98;85.14;101195.34;5034889;28;21023;-73
2022/04/20 03:55:17;;;;;;;0.40;0.30;;;;;;;8.05;84.59;101203.94;5034584;28;20463;-73
2022/04/20 03:57:43;;;;;;;0.40;0.30;;;;;;;8.07;84.47;101199.13;5035034;28;20491;-73
2022/04/20 04:00:12;;;;;;;0.40;0.30;;;;;;;8.09;84.49;101194.25;5036007;28;20490;-73
2022/04/20 04:02:38;;;;;;;0.40;0.30;;;;;;;8.10;84.25;101193.16;5034291;28;20469;-73
2022/04/20 04:05:06;;;;;;;0.40;0.30;;;;;;;8.11;84.65;101194.81;5033403;28;20475;-73
2022/04/20 04:07:32;;;;;;;0.40;0.30;;;;;;;8.14;84.82;101194.25;5034322;28;21019;-72
2022/04/20 04:09:59;;;;;;;0.40;0.40;;;;;;;8.17;85.20;101187.50;5033456;28;20995;-71
2022/04/20 04:12:26;;;;;;;0.40;0.30;;;;;;;8.26;84.38;101186.69;5032831;28;20472;-73
2022/04/20 04:14:53;;;;;;;0.40;0.30;;;;;;;8.31;83.49;101188.59;5034931;28;20483;-72
2022/04/20 04:17:19;;;;;;;0.40;0.30;;;;;;;8.29;82.29;101193.44;5033494;28;20506;-71
2022/04/20 04:19:46;;;;;;;0.40;0.30;;;;;;;8.25;82.25;101190.47;5034227;28;20956;-72
2022/04/20 04:22:13;;;;;;;0.50;0.43;;;;;;;8.23;82.38;101186.41;5033866;28;20470;-73
2022/04/20 04:24:40;;;;;;;0.40;0.30;;;;;;;8.25;82.06;101189.66;5034235;28;20826;-70
2022/04/20 04:27:08;;;;;;;0.40;0.30;;;;;;;8.12;82.87;101185.63;5034119;28;20478;-67
2022/04/20 04:29:37;;;;;;;0.40;0.30;;;;;;;8.16;82.68;101191.28;5015712;28;20452;-69
2022/04/20 04:32:04;;;;;;;0.40;0.30;;;;;;;8.17;83.64;101184.81;5021272;28;20956;-71
2022/04/20 04:34:31;;;;;;;0.40;0.30;;;;;;;8.23;83.07;101183.72;5033704;28;20487;-72
2022/04/20 04:36:57;;;;;;;0.40;0.30;;;;;;;8.29;83.87;101174.56;5032349;28;20491;-73
2022/04/20 04:39:28;;;;;;;1.70;0.77;;;;;;;8.34;84.26;101175.34;5034042;28;21011;-73
2022/04/20 04:41:56;;;;;;;0.40;0.30;;;;;;;8.34;84.31;101178.06;5034393;28;20458;-73
2022/04/20 04:44:23;;;;;;;0.40;0.30;;;;;;;8.42;84.50;101181.34;5033667;28;20509;-73
2022/04/20 04:49:37;;;;;;;0.40;0.30;;;;;;;8.43;84.49;101177.53;5017538;28;20799;-72
2022/04/20 04:52:06;;;;;;;0.40;0.30;;;;;;;8.53;84.41;101177.53;5032470;28;20968;-74
2022/04/20 04:54:33;;;;;;;0.40;0.30;;;;;;;8.64;84.09;101183.72;5031590;28;20487;-73
2022/04/20 04:57:00;;;;;;;0.40;0.30;;;;;;;8.69;83.78;101191.81;5033812;28;20507;-72
2022/04/20 04:59:26;;;;;;;0.40;0.30;;;;;;;8.73;83.71;101192.91;5033909;28;20495;-71
2022/04/20 05:01:54;;;;;;;0.40;0.30;;;;;;;8.76;83.82;101176.94;5032324;28;21083;-73
2022/04/20 05:04:21;;;;;;;0.40;0.30;;;;;;;8.81;83.93;101173.44;5033782;28;20459;-71
2022/04/20 05:06:47;;;;;;;0.40;0.30;;;;;;;8.81;84.31;101174.22;5032612;28;20466;-73
2022/04/20 05:09:14;;;;;;;1.03;1.03;;;;;;;8.83;83.16;101182.84;5034629;28;20813;-74
2022/04/20 05:11:40;;;;;;;0.40;0.30;;;;;;;8.89;81.88;101191.75;5034147;28;20994;-73
2022/04/20 05:14:07;;;;;;;0.40;0.30;;;;;;;8.86;82.11;101186.91;5032520;28;20487;-74
2022/04/20 05:16:33;;;;;;;0.40;0.30;;;;;;;8.89;82.18;101185.53;5032680;28;20466;-72
2022/04/20 05:19:01;;;;;;;0.40;0.30;;;;;;;8.90;82.25;101181.75;5033755;28;20462;-72
2022/04/20 05:21:27;;;;;;;0.40;0.30;;;;;;;9.01;82.55;101194.97;5032606;28;20466;-73
2022/04/20 05:23:58;;;;;;;0.40;0.30;;;;;;;9.04;81.36;101189.03;5032672;28;20459;-75
2022/04/20 05:26:24;;;;;;;0.40;0.30;;;;;;;9.10;81.37;101189.81;5033897;28;20475;-72
2022/04/20 05:28:51;;;;;;;0.40;0.30;;;;;;;9.09;82.64;101196.28;5030787;28;21030;-70
2022/04/20 05:31:17;;;;;;;0.40;0.30;;;;;;;9.02;82.85;101193.88;5035692;28;20451;-72
2022/04/20 05:33:44;;;;;;;0.40;0.27;;;;;;;9.08;82.83;101190.09;5033353;28;20892;-71
2022/04/20 05:36:12;;;;;;;0.40;0.30;;;;;;;8.94;83.28;101188.22;5029242;28;20474;-68
2022/04/20 05:44:18;;;;;;;0.40;0.20;;;;;;;8.83;84.15;101195.56;5008311;28;20533;-72
2022/04/20 05:46:45;;;;;;;0.40;0.30;;;;;;;8.90;84.04;101195.25;5031076;28;20463;-72
2022/04/20 05:49:12;;;;;;;0.40;0.30;;;;;;;8.89;85.03;101199.84;5026351;28;20518;-72
2022/04/20 05:51:40;;;;;;;0.40;0.30;;;;;;;8.91;84.15;101202.31;5039869;28;20463;-71
2022/04/20 05:54:06;;;;;;;1.00;1.00;;;;;;;9.04;84.13;101204.44;5031757;28;20882;-72
2022/04/20 05:56:33;;;;;;;0.40;0.30;;;;;;;9.11;83.93;101199.53;5031636;28;20459;-74
2022/04/20 05:58:59;;;;;;;0.50;0.30;;;;;;;9.15;83.56;101205.19;5031228;28;20466;-73
2022/04/20 06:01:26;;;;;;;0.40;0.30;;;;;;;9.14;83.13;101200.88;5031024;28;22402;-73
2022/04/20 06:03:53;;;;;;;0.40;0.30;;;;;;;9.23;82.78;101199.22;5031639;28;20490;-74
2022/04/20 06:06:19;;;;;;;0.40;0.30;;;;;;;9.27;82.38;101213.78;5033903;28;20450;-70
2022/04/20 06:08:48;;;;;;;0.40;0.30;;;;;;;9.31;81.84;101204.84;5032319;28;20501;-71
2022/04/20 06:11:14;;;;;;;0.40;0.30;;;;;;;9.25;81.56;101205.97;5032775;28;20453;-74
2022/04/20 06:13:41;;;;;;;0.40;0.30;;;;;;;9.27;81.69;101208.38;5033515;28;20494;-72
2022/04/20 06:16:08;;;;;;;0.40;0.30;;;;;;;9.31;81.44;101204.06;5033375;28;20815;-79
2022/04/20 06:18:35;;;;;;;0.50;0.40;;;;;;;9.29;81.47;101196.19;5032372;28;20471;-74
2022/04/20 06:21:05;;;;;;;0.50;0.50;;;;;;;9.35;81.18;101208.63;5019463;28;20458;-75
2022/04/20 06:23:32;;;;;;;0.40;0.30;;;;;;;9.42;80.76;101216.41;5033066;28;20466;-75
2022/04/20 06:26:00;;;;;;;0.40;0.30;;;;;;;9.44;80.22;101216.97;5031927;28;20948;-77
2022/04/20 06:28:26;;;;;;;0.40;0.30;;;;;;;9.49;79.89;101210.72;5036436;28;20467;-77
2022/04/20 06:30:54;;;;;;;0.40;0.30;;;;;;;9.52;79.92;101212.88;5031691;28;20455;-75
2022/04/20 06:33:23;;;;;;;3.97;3.60;;;;;;;9.62;80.03;101212.81;5031783;28;20467;-73
2022/04/20 06:35:50;;;;;;;0.40;0.30;;;;;;;9.65;78.27;101206.88;5031615;28;20503;-76
2022/04/20 06:38:16;;;;;;;0.40;0.30;;;;;;;9.78;78.90;101203.53;5031912;28;20486;-75
2022/04/20 06:40:45;;;;;;;0.40;0.30;;;;;;;9.92;79.01;101206.41;5030364;28;20460;-76
2022/04/20 06:43:14;;;;;;;0.40;0.30;;;;;;;9.95;78.57;101203.13;5032406;28;20545;-75
2022/04/20 06:45:41;;;;;;;0.40;0.30;;;;;;;9.92;77.28;101201.00;5032803;28;20450;-74
2022/04/20 06:48:07;;;;;;;0.40;0.30;;;;;;;9.93;76.94;101194.50;5031902;28;20490;-72
2022/04/20 06:50:34;;;;;;;0.40;0.30;;;;;;;9.98;77.18;101202.56;5030372;28;20458;-73
2022/04/20 06:58:35;;;;;;;0.40;0.30;;;;;;;10.15;76.87;101196.78;5031270;28;20466;-73
2022/04/20 07:01:01;;;;;;;0.40;0.30;;;;;;;10.37;76.15;101198.25;5027952;28;20456;-74
2022/04/20 07:03:28;;;;;;;0.40;0.30;;;;;;;10.53;74.08;101202.41;5032050;28;20486;-73
2022/04/20 07:05:55;;;;;;;0.40;0.30;;;;;;;10.64;73.64;101193.13;5032552;28;20967;-73
2022/04/20 07:08:22;;;;;;;0.50;0.40;;;;;;;10.70;71.82;101191.97;5031187;28;20494;-76
2022/04/20 07:10:49;;;;;;;0.40;0.30;;;;;;;10.77;72.33;101194.34;5029832;28;20891;-70
2022/04/20 07:13:17;;;;;;;0.40;0.30;;;;;;;10.74;71.21;101184.88;5032885;28;20447;-71
2022/04/20 07:15:44;;;;;;;0.40;0.30;;;;;;;10.72;70.52;101189.78;5031971;28;20493;-70
2022/04/20 07:18:11;;;;;;;2.00;1.80;;;;;;;10.71;69.29;101185.44;5030073;28;22512;-74
2022/04/20 07:20:38;;;;;;;0.40;0.30;;;;;;;10.78;69.17;101194.03;5031567;28;20442;-74
2022/04/20 07:23:04;;;;;;;0.40;0.30;;;;;;;10.77;71.31;101203.28;5032032;28;20474;-73
2022/04/20 07:25:32;;;;;;;0.40;0.30;;;;;;;10.96;70.22;101197.91;5031093;28;20467;-73
2022/04/20 07:27:59;;;;;;;0.40;0.30;;;;;;;11.15;69.38;101203.38;5028571;28;20517;-73
2022/04/20 07:30:26;;;;;;;0.40;0.30;;;;;;;11.37;68.06;101206.38;5029925;28;20459;-73
2022/04/20 07:32:54;;;;;;;0.40;0.30;;;;;;;11.61;66.74;101205.53;5032665;28;20438;-73
2022/04/20 07:35:21;;;;;;;0.40;0.30;;;;;;;11.71;65.92;101205.38;5029267;28;20486;-73
2022/04/20 07:37:47;;;;;;;0.40;0.30;;;;;;;11.68;65.47;101205.16;5030820;28;20490;-73
2022/04/20 07:40:14;;;;;;;0.40;0.40;;;;;;;11.75;65.16;101206.41;5027409;28;20851;-74
2022/04/20 07:42:42;;;;;;;0.40;0.30;;;;;;;11.85;64.84;101205.47;5028410;28;20474;-73
2022/04/20 07:45:10;;;;;;;0.40;0.30;;;;;;;11.72;63.86;101212.41;5030820;28;20455;-73
2022/04/20 07:47:37;;;;;;;0.40;0.30;;;;;;;11.45;63.62;101207.63;5030721;28;21033;-74
2022/04/20 07:50:23;;;;;;;0.60;0.60;;;;;;;11.48;64.55;101211.69;5029300;28;20463;-74
2022/04/20 07:52:51;;;;;;;0.40;0.30;;;;;;;11.36;64.26;101203.94;5032621;28;20545;-74
2022/04/20 07:55:23;;;;;;;0.43;0.37;;;;;;;11.34;64.82;101209.69;5033244;28;20491;-75
2022/04/20 07:57:50;;;;;;;0.40;0.30;;;;;;;11.47;65.03;101210.88;5026886;28;20483;-73
2022/04/20 08:00:18;;;;;;;0.40;0.30;;;;;;;11.58;64.56;101204.19;5035079;28;20455;-73
2022/04/20 08:02:45;;;;;;;0.40;0.30;;;;;;;11.65;64.11;101206.56;5033910;28;20470;-74
2022/04/20 08:05:14;;;;;;;0.40;0.30;;;;;;;11.73;63.00;101216.75;5034088;28;20485;-73
2022/04/20 08:07:41;;;;;;;0.40;0.30;;;;;;;11.77;63.45;101212.34;5032153;28;20494;-74
2022/04/20 08:10:09;;;;;;;0.40;0.30;;;;;;;11.78;61.74;101213.97;5032453;28;20455;-73
2022/04/20 08:12:38;;;;;;;0.40;0.30;;;;;;;11.74;62.06;101217.56;5032196;28;21027;-74
2022/04/20 08:15:06;;;;;;;0.40;0.30;;;;;;;11.96;64.06;101206.16;5034587;28;20483;-71
2022/04/20 08:17:33;;;;;;;0.40;0.30;;;;;;;12.10;62.21;101207.00;5035463;28;20463;-73
2022/04/20 08:20:00;;;;;;;0.40;0.30;;;;;;;12.19;59.37;101205.22;5035319;28;20455;-73
2022/04/20 08:22:28;;;;;;;0.40;0.30;;;;;;;12.27;57.82;101201.84;5035541;28;20443;-72
2022/04/20 08:24:55;;;;;;;0.40;0.30;;;;;;;12.33;57.00;101197.13;5035517;28;20439;-73
2022/04/20 08:27:22;;;;;;;0.40;0.20;;;;;;;12.43;56.47;101199.66;5035427;28;20984;-73
2022/04/20 08:29:49;;;;;;;0.40;0.30;;;;;;;12.55;56.51;101202.72;5035419;28;20450;-73
2022/04/20 08:32:16;;;;;;;0.40;0.30;;;;;;;12.71;55.42;101200.53;5035375;28;20448;-73
2022/04/20 08:34:43;;;;;;;0.40;0.30;;;;;;;12.62;54.52;101196.91;5034867;28;20590;-74
2022/04/20 08:37:10;;;;;;;0.40;0.20;;;;;;;12.68;52.80;101195.69;5034676;28;20467;-74
2022/04/20 08:39:38;;;;;;;0.40;0.30;;;;;;;12.70;51.69;101196.19;5034829;28;20428;-74
2022/04/20 08:42:06;;;;;;;0.40;0.30;;;;;;;12.84;52.37;101197.03;5035031;28;20455;-73
2022/04/20 08:44:35;;;;;;;0.40;0.20;;;;;;;12.75;52.88;101190.69;5035127;28;20467;-73
2022/04/20 08:47:03;;;;;;;0.40;0.30;;;;;;;12.80;52.93;101197.94;5035172;28;20470;-77
2022/04/20 08:49:29;;;;;;;0.40;0.30;;;;;;;12.97;51.60;101191.88;5035809;28;20439;-78
2022/04/20 08:54:45;;;;;;;0.40;0.30;;;;;;;13.08;51.86;101196.03;5031396;28;20622;-76
2022/04/20 08:57:19;;;;;;;0.40;0.30;;;;;;;13.01;50.53;101190.16;5029008;28;20494;-76
2022/04/20 08:59:48;;;;;;;0.40;0.20;;;;;;;12.76;50.97;101202.34;5032202;28;20463;-77
2022/04/20 09:02:15;;;;;;;0.40;0.30;;;;;;;12.81;51.75;101194.91;5033565;28;20826;-76
2022/04/20 09:04:42;;;;;;;0.40;0.30;;;;;;;12.79;51.41;101194.41;5034185;28;20442;-76
2022/04/20 09:07:09;;;;;;;0.40;0.30;;;;;;;12.61;51.48;101201.50;5032151;28;20506;-77
2022/04/20 09:09:35;;;;;;;0.40;0.30;;;;;;;12.44;52.64;101192.31;5034242;28;20940;-76
2022/04/20 09:12:08;;;;;;;0.40;0.30;;;;;;;12.45;53.55;101197.47;5034711;28;20446;-76
2022/04/20 09:14:35;;;;;;;0.40;0.30;;;;;;;12.47;54.88;101195.25;5034492;28;20470;-76
2022/04/20 09:17:03;;;;;;;0.40;0.30;;;;;;;12.64;53.90;101194.69;5031212;28;20537;-76
2022/04/20 09:19:29;;;;;;;0.40;0.30;;;;;;;12.63;53.55;101193.06;5033189;28;20482;-77
2022/04/20 09:21:57;;;;;;;0.40;0.30;;;;;;;12.55;54.17;101193.75;5030375;28;20468;-75
2022/04/20 09:24:23;;;;;;;0.40;0.30;;;;;;;12.42;54.73;101194.53;5015115;28;20945;-76
2022/04/20 09:26:52;;;;;;;0.40;0.20;;;;;;;12.66;56.04;101197.91;5023574;28;21000;-76
2022/04/20 09:29:20;;;;;;;0.40;0.30;;;;;;;12.81;57.75;101203.06;5034535;28;20861;-77
2022/04/20 09:31:48;;;;;;;0.40;0.20;;;;;;;12.77;56.58;101210.19;5034331;28;20442;-76
2022/04/20 09:34:53;;;;;;;2.30;1.63;;;;;;;12.73;57.63;101213.81;5030913;28;20555;-77
2022/04/20 09:37:21;;;;;;;0.40;0.30;;;;;;;12.84;58.95;101217.97;5016982;28;20475;-76
2022/04/20 09:39:51;;;;;;;0.40;0.30;;;;;;;12.91;59.21;101214.84;5019476;28;20506;-76
2022/04/20 09:42:19;;;;;;;0.40;0.30;;;;;;;12.84;61.16;101223.41;5018069;28;20459;-77
2022/04/20 09:44:55;;;;;;;0.40;0.30;;;;;;;12.63;60.32;101214.81;5026820;28;20479;-77
2022/04/20 09:50:08;;;;;;;0.40;0.30;;;;;;;12.73;62.88;101200.22;5031263;28;20427;-77
2022/04/20 09:52:41;;;;;;;0.40;0.20;;;;;;;12.90;63.30;101196.94;5028890;28;20502;-77
2022/04/20 09:55:11;;;;;;;0.40;0.30;;;;;;;13.07;63.58;101199.84;5033554;28;20592;-77
2022/04/20 09:57:37;;;;;;;0.40;0.30;;;;;;;13.12;63.06;101197.81;5033928;28;20466;-77
2022/04/20 10:00:10;;;;;;;0.40;0.30;;;;;;;13.26;61.89;101189.69;5033453;28;20447;-77
2022/04/20 10:02:45;;;;;;;0.40;0.30;;;;;;;13.46;61.31;101185.75;5031432;28;20459;-76
2022/04/20 10:05:12;;;;;;;0.40;0.30;;;;;;;13.62;58.98;101197.88;5033362;28;20457;-77
2022/04/20 10:07:38;;;;;;;0.40;0.30;;;;;;;13.49;58.47;101195.19;5027700;28;20505;-76
2022/04/20 10:10:05;;;;;;;0.40;0.30;;;;;;;13.55;57.58;101194.00;5026710;28;20568;-77
2022/04/20 10:12:33;;;;;;;0.40;0.30;;;;;;;13.41;57.81;101193.19;5026838;28;20983;-70
2022/04/20 10:17:50;;;;;;;0.40;0.30;;;;;;;13.55;57.30;101185.81;5024467;28;20478;-69
2022/04/20 10:20:17;;;;;;;1.90;1.80;;;;;;;13.46;59.06;101176.75;5023307;28;20463;-72
2022/04/20 10:22:45;;;;;;;0.40;0.30;;;;;;;13.66;59.88;101176.31;5021775;28;20496;-72
2022/04/20 10:25:12;;;;;;;0.40;0.30;;;;;;;13.94;60.42;101187.09;5028724;28;21022;-72
2022/04/20 10:27:51;;;;;;;0.40;0.30;;;;;;;14.24;59.78;101180.09;5032862;28;20845;-72
2022/04/20 10:30:22;;;;;;;0.40;0.30;;;;;;;14.42;57.60;101170.91;5033383;28;20800;-72
2022/04/20 10:32:53;;;;;;;0.40;0.30;;;;;;;14.45;57.72;101153.94;5033266;28;20439;-72
2022/04/20 10:35:21;;;;;;;0.40;0.30;;;;;;;14.41;59.09;101147.50;5032810;28;21039;-73
2022/04/20 10:38:09;;;;;;;0.40;0.30;;;;;;;14.34;59.65;101149.84;5033123;28;20467;-73
2022/04/20 10:40:54;;;;;;;0.40;0.30;;;;;;;13.97;58.51;101151.06;5033084;28;20541;-73
2022/04/20 10:43:22;;;;;;;0.40;0.30;;;;;;;13.63;61.94;101147.78;5033243;28;20423;-73
2022/04/20 10:46:11;;;;;;;0.40;0.30;;;;;;;13.38;63.66;101142.91;5033001;28;20443;-72
2022/04/20 10:48:51;;;;;;;0.40;0.20;;;;;;;13.30;66.99;101146.34;5032943;28;20463;-72
2022/04/20 10:51:19;;;;;;;0.40;0.30;;;;;;;13.26;68.75;101151.59;5032928;28;20430;-72
2022/04/20 10:53:48;;;;;;;0.40;0.30;;;;;;;13.24;69.34;101153.03;5033159;28;20447;-72
2022/04/20 10:56:15;;;;;;;0.40;0.20;;;;;;;13.07;68.35;101145.47;5032738;28;20850;-73
2022/04/20 10:58:52;;;;;;;0.40;0.20;;;;;;;13.05;68.65;101144.94;5029931;28;20866;-73
2022/04/20 11:01:18;;;;;;;0.40;0.30;;;;;;;13.05;66.23;101136.78;5028152;28;20459;-75
2022/04/20 11:04:06;;;;;;;0.40;0.30;;;;;;;13.07;63.95;101126.41;5031155;28;20470;-74
2022/04/20 11:07:07;;;;;;;0.40;0.30;;;;;;;13.11;63.72;101117.34;5031872;28;20498;-74
2022/04/20 11:10:02;;;;;;;0.40;0.30;;;;;;;13.21;62.32;101123.69;5030027;28;20474;-76
2022/04/20 11:18:42;;;;;;;0.40;0.30;;;;;;;13.94;61.60;101127.19;5031878;28;20627;-73
2022/04/20 11:21:23;;;;;;;0.40;0.30;;;;;;;14.12;60.70;101118.00;5031647;28;20482;-74
2022/04/20 11:23:55;;;;;;;0.40;0.30;;;;;;;14.36;60.78;101115.72;5030700;28;20905;-74
2022/04/20 11:26:24;;;;;;;0.40;0.30;;;;;;;14.45;59.93;101115.78;5031779;28;20542;-75
2022/04/20 11:28:52;;;;;;;0.40;0.30;;;;;;;14.58;58.57;101116.81;5031709;28;20487;-73
2022/04/20 11:31:19;;;;;;;0.40;0.30;;;;;;;14.68;58.02;101113.81;5032880;28;20463;-73
2022/04/20 11:33:46;;;;;;;0.40;0.20;;;;;;;14.11;57.07;101113.66;5036565;28;20450;-74
2022/04/20 11:36:13;;;;;;;0.40;0.30;;;;;;;13.87;57.16;101122.97;5035273;28;20486;-75
2022/04/20 11:38:43;;;;;;;0.40;0.20;;;;;;;13.80;56.67;101113.63;5036190;28;20980;-74
2022/04/20 11:41:10;;;;;;;0.40;0.20;;;;;;;13.96;58.21;101117.59;5024209;28;20463;-75
2022/04/20 11:43:37;;;;;;;0.40;0.30;;;;;;;13.87;57.38;101122.97;5035304;28;20513;-78
2022/04/20 11:46:04;;;;;;;0.40;0.30;;;;;;;13.65;58.20;101120.25;5034537;28;20981;-74
2022/04/20 11:48:32;;;;;;;0.40;0.27;;;;;;;13.51;57.83;101108.63;5033401;28;20581;-74
2022/04/20 11:51:00;;;;;;;0.40;0.30;;;;;;;13.42;58.16;101094.94;5035011;28;20494;-72
2022/04/20 11:53:33;;;;;;;0.40;0.30;;;;;;;13.54;58.09;101091.66;5033878;28;21043;-73
2022/04/20 11:56:01;;;;;;;0.40;0.30;;;;;;;13.66;58.49;101091.09;5035070;28;20497;-74
2022/04/20 11:58:28;;;;;;;0.40;0.30;;;;;;;13.73;58.98;101078.69;5035000;28;20486;-72
2022/04/20 12:01:04;;;;;;;0.40;0.27;;;;;;;13.68;58.60;101084.25;5034934;28;20473;-71
2022/04/20 12:03:32;;;;;;;0.40;0.30;;;;;;;13.72;59.62;101082.50;5033866;28;20454;-74